Linwood, New Jersey
Current Conditions -  °F | °C
As of 5:28 AM on Saturday 20 Dec 2014 (Local Time) from KACY Reporting Station
Overcast Overcast  
Wind Chill: 29°   Ceiling: 2900
Heat Index: 29°   Visibility: 10mi
Dew Point: 23°   Wind: 3mph
Humidity: 78%   Direction: 290°WNW
Pressure: 30.25"   Gusts: NA
Location:  39.35°N, 74.57°W
Report Text: KACY 201028Z 29003KT 10SM OVC029 M02/M05 A3025 RMK AO2 T10171050
Loading
Personal Weather Stations






























Interactive Weather Map New forecast layout! Learn more

10-Day Weather Forecast

Advertisements
Track Severe Weather on mobile